createdAt,value
2019-04-03T00:00:49.885Z,100280.64
2019-04-03T00:03:54.877Z,100276.63
2019-04-03T00:06:21.940Z,100269.94
2019-04-03T00:08:49.024Z,100277.29
2019-04-03T00:11:16.070Z,100270.24
2019-04-03T00:13:43.193Z,100270.59
2019-04-03T00:16:10.464Z,100267.05
2019-04-03T00:18:37.559Z,100258.62
2019-04-03T00:21:04.599Z,100255.96
2019-04-03T00:23:31.708Z,100250.61
2019-04-03T00:25:58.771Z,100255.80
2019-04-03T00:28:25.868Z,100254.00
2019-04-03T00:30:53.394Z,100252.65
2019-04-03T00:33:22.966Z,100249.56
2019-04-03T00:35:49.536Z,100258.23
2019-04-03T00:38:16.585Z,100255.11
2019-04-03T00:40:43.653Z,100262.08
2019-04-03T00:43:33.720Z,100255.03
2019-04-03T00:46:00.895Z,100267.27
2019-04-03T00:48:28.038Z,100264.15
2019-04-03T00:50:57.292Z,100257.10
2019-04-03T00:53:24.282Z,100260.48
2019-04-03T00:55:51.555Z,100263.48
2019-04-03T00:58:39.497Z,100264.33
2019-04-03T01:01:10.600Z,100266.98
2019-04-03T01:03:38.435Z,100262.18
2019-04-03T01:06:06.058Z,100260.06
2019-04-03T01:08:33.097Z,100259.18
2019-04-03T01:11:00.470Z,100255.25
2019-04-03T01:13:28.031Z,100260.83
2019-04-03T01:15:55.104Z,100260.33
2019-04-03T01:18:22.142Z,100259.86
2019-04-03T01:20:49.244Z,100262.90
2019-04-03T01:23:16.357Z,100260.63
2019-04-03T01:25:43.419Z,100260.63
2019-04-03T01:28:11.717Z,100269.78
2019-04-03T01:30:39.205Z,100269.31
2019-04-03T01:33:06.268Z,100267.97
2019-04-03T01:35:33.369Z,100267.55
2019-04-03T01:38:00.421Z,100260.16
2019-04-03T01:40:48.919Z,100256.16
2019-04-03T01:43:17.405Z,100252.56
2019-04-03T01:45:44.480Z,100259.95
2019-04-03T01:48:11.612Z,100270.38
2019-04-03T01:50:38.771Z,100263.92
2019-04-03T01:53:05.853Z,100256.07
2019-04-03T01:55:34.535Z,100255.65
2019-04-03T01:58:02.049Z,100249.06
2019-04-03T02:00:29.273Z,100249.53
2019-04-03T02:02:56.502Z,100245.22
2019-04-03T02:05:23.991Z,100250.92
2019-04-03T02:07:51.100Z,100240.03
2019-04-03T02:10:21.958Z,100236.98
2019-04-03T02:12:51.224Z,100234.38
2019-04-03T02:15:19.562Z,100228.67
2019-04-03T02:18:05.572Z,100220.79
2019-04-03T02:20:32.936Z,100220.33
2019-04-03T02:23:00.582Z,100221.63
2019-04-03T02:25:31.531Z,100226.91
2019-04-03T02:27:57.824Z,100228.17
2019-04-03T02:30:25.154Z,100229.02
2019-04-03T02:32:55.078Z,100236.36
2019-04-03T02:35:22.429Z,100235.06
2019-04-03T02:37:51.503Z,100232.78
2019-04-03T02:40:18.927Z,100229.23
2019-04-03T02:42:46.049Z,100223.08
2019-04-03T02:45:13.331Z,100227.89
2019-04-03T02:47:40.420Z,100223.13
2019-04-03T02:50:07.510Z,100228.31
2019-04-03T02:52:35.090Z,100226.96
2019-04-03T02:55:06.975Z,100236.16
2019-04-03T02:57:31.512Z,100240.05
2019-04-03T03:00:00.158Z,100237.42
2019-04-03T03:02:27.711Z,100233.92
2019-04-03T03:04:55.605Z,100234.77
2019-04-03T03:07:22.776Z,100225.57
2019-04-03T03:09:51.990Z,100235.99
2019-04-03T03:12:19.150Z,100233.76
2019-04-03T03:14:46.735Z,100229.70
2019-04-03T03:17:15.593Z,100227.89
2019-04-03T03:19:42.983Z,100231.39
2019-04-03T03:22:10.837Z,100231.77
2019-04-03T03:24:38.109Z,100228.23
2019-04-03T03:27:24.118Z,100239.16
2019-04-03T03:29:53.209Z,100242.66
2019-04-03T03:32:28.913Z,100238.27
2019-04-03T03:34:57.879Z,100240.00
2019-04-03T03:37:21.242Z,100238.65
2019-04-03T03:39:48.654Z,100229.92
2019-04-03T03:42:16.299Z,100226.92
2019-04-03T03:44:45.937Z,100227.77
2019-04-03T03:47:13.656Z,100229.50
2019-04-03T03:49:41.112Z,100219.03
2019-04-03T03:52:08.783Z,100221.23
2019-04-03T03:54:35.903Z,100219.45
2019-04-03T03:57:04.735Z,100223.34
2019-04-03T03:59:33.072Z,100226.84
2019-04-03T04:02:03.480Z,100215.07
2019-04-03T04:04:29.502Z,100220.30
2019-04-03T04:06:57.526Z,100224.22
2019-04-03T04:09:24.772Z,100220.30
2019-04-03T04:12:09.949Z,100223.76
2019-04-03T04:14:37.312Z,100221.14
2019-04-03T04:17:08.421Z,100225.95
2019-04-03T04:19:34.799Z,100219.38
2019-04-03T04:22:02.361Z,100221.10
2019-04-03T04:24:29.792Z,100219.80
2019-04-03T04:26:56.891Z,100217.59
2019-04-03T04:29:24.003Z,100216.25
2019-04-03T04:31:52.596Z,100214.52
2019-04-03T04:34:19.684Z,100207.52
2019-04-03T04:36:46.805Z,100208.41
2019-04-03T04:39:13.936Z,100208.83
2019-04-03T04:41:41.041Z,100214.02
2019-04-03T04:44:09.894Z,100205.75
2019-04-03T04:46:37.309Z,100210.52
2019-04-03T04:49:04.560Z,100210.52
2019-04-03T04:51:31.674Z,100203.94
2019-04-03T04:53:59.492Z,100206.92
2019-04-03T04:56:27.203Z,100210.34
2019-04-03T04:58:54.252Z,100211.61
2019-04-03T05:01:21.302Z,100214.64
2019-04-03T05:03:48.559Z,100203.72
2019-04-03T05:06:15.715Z,100201.48
2019-04-03T05:08:42.780Z,100206.72
2019-04-03T05:11:09.855Z,100209.28
2019-04-03T05:13:36.936Z,100206.16
2019-04-03T05:16:04.130Z,100210.50
2019-04-03T05:18:50.338Z,100212.70
2019-04-03T05:21:21.745Z,100212.23
2019-04-03T05:23:48.734Z,100212.28
2019-04-03T05:26:15.808Z,100218.85
2019-04-03T05:28:54.351Z,100212.31
2019-04-03T05:31:12.067Z,100211.48
2019-04-03T05:33:41.134Z,100217.17
2019-04-03T05:36:08.169Z,100212.41
2019-04-03T05:38:37.682Z,100219.83
2019-04-03T05:41:04.225Z,100221.64
2019-04-03T05:43:32.749Z,100220.84
2019-04-03T05:46:00.050Z,100218.66
2019-04-03T05:48:27.203Z,100223.92
2019-04-03T05:50:54.354Z,100224.81
2019-04-03T05:53:21.746Z,100226.12
2019-04-03T05:55:48.933Z,100233.95
2019-04-03T05:58:16.723Z,100233.08
2019-04-03T06:00:44.078Z,100237.50
2019-04-03T06:03:11.343Z,100234.52
2019-04-03T06:05:38.834Z,100235.35
2019-04-03T06:08:06.156Z,100232.36
2019-04-03T06:10:37.437Z,100236.38
2019-04-03T06:13:06.202Z,100235.56
2019-04-03T06:15:33.419Z,100236.92
2019-04-03T06:18:00.569Z,100239.95
2019-04-03T06:20:27.666Z,100237.39
2019-04-03T06:22:54.750Z,100239.23
2019-04-03T06:25:21.962Z,100233.25
2019-04-03T06:27:49.053Z,100232.37
2019-04-03T06:30:16.722Z,100234.22
2019-04-03T06:32:44.439Z,100231.61
2019-04-03T06:35:13.353Z,100231.61
2019-04-03T06:37:40.643Z,100228.14
2019-04-03T06:40:07.819Z,100229.03
2019-04-03T06:42:34.937Z,100229.03
2019-04-03T06:45:04.304Z,100226.87
2019-04-03T06:47:32.172Z,100223.80
2019-04-03T06:50:22.452Z,100232.95
2019-04-03T06:52:49.629Z,100238.14
2019-04-03T06:55:16.981Z,100242.87
2019-04-03T06:57:44.176Z,100244.56
2019-04-03T07:00:11.389Z,100247.22
2019-04-03T07:02:38.690Z,100247.26
2019-04-03T07:05:06.197Z,100242.41
2019-04-03T07:07:35.443Z,100236.70
2019-04-03T07:10:04.225Z,100239.79
2019-04-03T07:12:31.927Z,100244.18
2019-04-03T07:14:59.133Z,100237.26
2019-04-03T07:17:26.248Z,100234.22
2019-04-03T07:19:53.307Z,100230.30
2019-04-03T07:22:20.803Z,100231.69
2019-04-03T07:24:48.108Z,100232.66
2019-04-03T07:27:16.538Z,100236.16
2019-04-03T07:29:43.617Z,100242.73
2019-04-03T07:32:10.774Z,100239.66
2019-04-03T07:34:37.876Z,100234.81
2019-04-03T07:37:04.945Z,100241.69
2019-04-03T07:39:32.369Z,100239.88
2019-04-03T07:41:59.570Z,100233.42
2019-04-03T07:44:27.652Z,100231.77
2019-04-03T07:46:55.728Z,100230.55
2019-04-03T07:49:22.851Z,100235.48
2019-04-03T07:51:50.045Z,100237.88
2019-04-03T07:54:17.159Z,100237.16
2019-04-03T07:56:44.393Z,100221.11
2019-04-03T07:59:11.774Z,100221.23
2019-04-03T08:01:41.295Z,100227.42
2019-04-03T08:04:10.698Z,100237.13
2019-04-03T08:06:38.084Z,100227.78
2019-04-03T08:09:09.737Z,100233.31
2019-04-03T08:11:37.319Z,100237.05
2019-04-03T08:14:04.963Z,100241.05
2019-04-03T08:16:32.314Z,100245.05
2019-04-03T08:18:59.428Z,100245.86
2019-04-03T08:21:29.463Z,100256.22
2019-04-03T08:23:55.519Z,100261.04
2019-04-03T08:26:22.593Z,100250.14
2019-04-03T08:28:49.720Z,100253.11
2019-04-03T08:31:16.792Z,100239.05
2019-04-03T08:33:44.143Z,100238.17
2019-04-03T08:36:23.107Z,100236.40
2019-04-03T08:38:40.184Z,100237.81
2019-04-03T08:41:07.517Z,100231.34
2019-04-03T08:43:34.921Z,100232.77
2019-04-03T08:46:01.977Z,100235.11
2019-04-03T08:48:29.493Z,100229.59
2019-04-03T08:50:58.171Z,100228.00
2019-04-03T08:53:25.677Z,100241.25
2019-04-03T08:55:53.460Z,100233.59
2019-04-03T08:58:23.602Z,100231.68
2019-04-03T09:00:50.999Z,100229.72
2019-04-03T09:03:18.391Z,100227.76
2019-04-03T09:05:45.444Z,100234.19
2019-04-03T09:08:19.924Z,100235.81
2019-04-03T09:10:46.998Z,100236.13
2019-04-03T09:13:18.042Z,100241.25
2019-04-03T09:15:44.109Z,100244.39
2019-04-03T09:18:11.219Z,100251.83
2019-04-03T09:20:38.294Z,100255.86
2019-04-03T09:23:05.430Z,100241.55
2019-04-03T09:25:33.022Z,100222.88
2019-04-03T09:28:00.242Z,100229.16
2019-04-03T09:30:27.641Z,100234.63
2019-04-03T09:32:54.734Z,100234.38
2019-04-03T09:35:22.165Z,100230.63
2019-04-03T09:37:50.387Z,100215.94
2019-04-03T09:40:18.272Z,100218.71
2019-04-03T09:42:45.586Z,100225.33
2019-04-03T09:45:33.802Z,100231.86
2019-04-03T09:48:14.841Z,100234.03
2019-04-03T09:50:42.195Z,100227.38
2019-04-03T09:53:09.288Z,100227.28
2019-04-03T09:55:37.588Z,100215.16
2019-04-03T09:58:05.302Z,100206.02
2019-04-03T10:00:32.389Z,100208.67
2019-04-03T10:02:59.642Z,100209.23
2019-04-03T10:05:29.002Z,100195.22
2019-04-03T10:07:56.063Z,100183.42
2019-04-03T10:10:25.615Z,100183.20
2019-04-03T10:12:54.212Z,100177.79
2019-04-03T10:15:21.434Z,100179.98
2019-04-03T10:17:49.005Z,100178.38
2019-04-03T10:20:17.623Z,100190.31
2019-04-03T10:22:45.393Z,100193.95
2019-04-03T10:25:12.741Z,100197.09
2019-04-03T10:27:42.619Z,100190.97
2019-04-03T10:30:10.995Z,100191.11
2019-04-03T10:32:38.458Z,100177.17
2019-04-03T10:35:07.313Z,100174.20
2019-04-03T10:37:35.060Z,100177.78
2019-04-03T10:40:02.130Z,100174.35
2019-04-03T10:42:31.271Z,100173.86
2019-04-03T10:44:59.002Z,100166.34
2019-04-03T10:47:39.369Z,100172.00
2019-04-03T10:49:55.388Z,100167.20
2019-04-03T10:52:22.645Z,100164.45
2019-04-03T10:54:49.674Z,100160.84
2019-04-03T10:57:16.762Z,100162.51
2019-04-03T10:59:43.836Z,100161.03
2019-04-03T11:02:10.985Z,100153.05
2019-04-03T11:04:38.436Z,100149.16
2019-04-03T11:07:05.753Z,100151.00
2019-04-03T11:09:33.408Z,100158.44
2019-04-03T11:12:01.349Z,100148.43
2019-04-03T11:14:29.270Z,100146.35
2019-04-03T11:16:56.835Z,100148.23
2019-04-03T11:19:24.290Z,100140.77
2019-04-03T11:21:51.404Z,100139.34
2019-04-03T11:24:18.483Z,100139.67
2019-04-03T11:27:25.075Z,100138.66
2019-04-03T11:29:51.589Z,100142.02
2019-04-03T11:32:18.751Z,100130.00
2019-04-03T11:34:48.891Z,100125.87
2019-04-03T11:37:15.027Z,100124.78
2019-04-03T11:39:42.116Z,100117.69
2019-04-03T11:42:09.195Z,100118.48
2019-04-03T11:44:36.247Z,100112.42
2019-04-03T11:47:03.543Z,100099.45
2019-04-03T11:49:30.728Z,100097.41
2019-04-03T11:51:58.979Z,100098.03
2019-04-03T11:54:26.846Z,100094.60
2019-04-03T11:56:56.405Z,100092.49
2019-04-03T11:59:24.053Z,100090.34
2019-04-03T12:01:52.587Z,100100.88
2019-04-03T12:04:19.649Z,100106.13
2019-04-03T12:06:46.773Z,100093.79
2019-04-03T12:09:13.967Z,100098.86
2019-04-03T12:11:41.221Z,100100.84
2019-04-03T12:14:08.482Z,100100.70
2019-04-03T12:16:35.871Z,100106.33
2019-04-03T12:19:05.447Z,100108.20
2019-04-03T12:21:33.722Z,100111.06
2019-04-03T12:24:00.876Z,100101.75
2019-04-03T12:26:28.029Z,100103.28
2019-04-03T12:28:55.146Z,100100.77
2019-04-03T12:31:22.540Z,100102.98
2019-04-03T12:33:56.449Z,100106.13
2019-04-03T12:36:18.594Z,100111.41
2019-04-03T12:38:47.728Z,100117.49
2019-04-03T12:41:14.808Z,100100.30
2019-04-03T12:43:41.910Z,100103.34
2019-04-03T12:46:08.963Z,100090.61
2019-04-03T12:48:36.017Z,100083.61
2019-04-03T12:51:03.319Z,100080.55
2019-04-03T12:53:30.437Z,100081.88
2019-04-03T12:55:59.601Z,100089.75
2019-04-03T12:58:26.843Z,100065.62
2019-04-03T13:00:54.358Z,100047.18
2019-04-03T13:03:23.911Z,100043.69
2019-04-03T13:05:50.876Z,100045.05
2019-04-03T13:08:19.605Z,100028.88
2019-04-03T13:10:48.971Z,100014.05
2019-04-03T13:13:16.147Z,100004.97
2019-04-03T13:15:43.402Z,100009.87
2019-04-03T13:18:10.445Z,100026.66
2019-04-03T13:20:38.159Z,100032.82
2019-04-03T13:23:05.277Z,100031.03
2019-04-03T13:25:32.532Z,100036.28
2019-04-03T13:28:03.210Z,100030.97
2019-04-03T13:31:12.931Z,100027.43
2019-04-03T13:33:41.105Z,100026.01
2019-04-03T13:36:08.551Z,100022.30
2019-04-03T13:38:35.822Z,100014.39
2019-04-03T13:41:05.188Z,100003.41
2019-04-03T13:43:32.091Z,99982.36
2019-04-03T13:45:59.189Z,99978.42
2019-04-03T13:48:26.418Z,99982.42
2019-04-03T13:50:54.843Z,99992.11
2019-04-03T13:53:25.092Z,100007.08
2019-04-03T13:55:51.495Z,100016.34
2019-04-03T13:58:20.564Z,100011.99
2019-04-03T14:00:58.614Z,100004.55
2019-04-03T14:03:18.457Z,100000.58
2019-04-03T14:05:45.730Z,100018.50
2019-04-03T14:08:13.495Z,100027.60
2019-04-03T14:10:40.861Z,100024.39
2019-04-03T14:13:10.754Z,100027.80
2019-04-03T14:15:36.972Z,100025.98
2019-04-03T14:18:04.032Z,100021.17
2019-04-03T14:20:31.086Z,100009.38
2019-04-03T14:23:02.892Z,100013.80
2019-04-03T14:25:47.505Z,100005.91
2019-04-03T14:28:35.448Z,100008.17
2019-04-03T14:31:33.088Z,100012.11
2019-04-03T14:34:10.656Z,100002.00
2019-04-03T14:36:58.807Z,99988.85
2019-04-03T14:39:47.495Z,99993.69
2019-04-03T14:42:36.240Z,99980.13
2019-04-03T14:45:22.128Z,99982.83
2019-04-03T14:48:11.010Z,99982.02
2019-04-03T15:01:33.097Z,99989.97
2019-04-03T15:04:08.751Z,99965.38
2019-04-03T15:06:44.200Z,99959.22
2019-04-03T15:09:18.884Z,99953.48
2019-04-03T15:11:57.185Z,99956.53
2019-04-03T15:14:38.504Z,99960.03
2019-04-03T15:17:21.406Z,99960.01
2019-04-03T15:20:00.812Z,99949.86
2019-04-03T15:22:42.580Z,99948.46
2019-04-03T15:25:24.968Z,99950.58
2019-04-03T15:28:09.471Z,99949.17
2019-04-03T15:30:48.413Z,99965.30
2019-04-03T15:33:31.865Z,99968.26
2019-04-03T15:36:10.518Z,99982.19
2019-04-03T15:38:53.439Z,99980.34
2019-04-03T15:41:34.178Z,99980.78
2019-04-03T15:44:15.380Z,99980.33
2019-04-03T15:46:53.183Z,99983.47
2019-04-03T15:49:39.229Z,99984.78
2019-04-03T15:52:07.207Z,99982.61
2019-04-03T15:54:34.328Z,99971.23
2019-04-03T15:57:01.394Z,99962.02
2019-04-03T15:59:29.812Z,99965.53
2019-04-03T16:01:58.049Z,99966.88
2019-04-03T16:04:27.059Z,99983.52
2019-04-03T16:06:54.364Z,99990.50
2019-04-03T16:09:22.602Z,99979.47
2019-04-03T16:11:49.636Z,99977.22
2019-04-03T16:14:19.914Z,99963.11
2019-04-03T16:16:45.928Z,99967.00
2019-04-03T16:19:12.972Z,99971.34
2019-04-03T16:21:40.499Z,99972.61
2019-04-03T16:24:11.378Z,99969.92
2019-04-03T16:26:37.014Z,99958.05
2019-04-03T16:29:06.613Z,99953.19
2019-04-03T16:31:33.742Z,99941.78
2019-04-03T16:34:01.034Z,99946.56
2019-04-03T16:36:28.225Z,99951.35
2019-04-03T16:38:55.317Z,99956.12
2019-04-03T16:41:22.403Z,99960.91
2019-04-03T16:43:49.691Z,99957.77
2019-04-03T16:46:17.275Z,99959.05
2019-04-03T16:48:45.612Z,99959.42
2019-04-03T16:51:14.448Z,99957.61
2019-04-03T16:53:41.792Z,99953.62
2019-04-03T16:56:09.433Z,99957.53
2019-04-03T16:58:37.182Z,99946.54
2019-04-03T17:01:04.585Z,99945.19
2019-04-03T17:03:33.047Z,99951.69
2019-04-03T17:06:02.100Z,99941.59
2019-04-03T17:08:29.404Z,99928.39
2019-04-03T17:10:56.591Z,99922.63
2019-04-03T17:13:23.856Z,99917.33
2019-04-03T17:15:51.304Z,99899.73
2019-04-03T17:18:19.947Z,99906.14
2019-04-03T17:20:49.694Z,99918.31
2019-04-03T17:23:16.044Z,99942.73
2019-04-03T17:25:48.105Z,99940.47
2019-04-03T17:28:12.808Z,99951.34
2019-04-03T17:30:40.122Z,99951.70
2019-04-03T17:33:08.517Z,99958.64
2019-04-03T17:35:35.713Z,99962.07
2019-04-03T17:38:03.157Z,99967.72
2019-04-03T17:40:30.190Z,99973.80
2019-04-03T17:42:57.286Z,99965.00
2019-04-03T17:45:24.509Z,99956.22
2019-04-03T17:47:53.849Z,99961.01
2019-04-03T17:50:20.526Z,99956.57
2019-04-03T17:52:53.509Z,99957.38
2019-04-03T17:55:20.586Z,99951.70
2019-04-03T17:57:47.760Z,99943.81
2019-04-03T18:00:20.482Z,99941.19
2019-04-03T18:02:46.652Z,99945.13
2019-04-03T18:05:14.010Z,99939.83
2019-04-03T18:07:41.154Z,99937.23
2019-04-03T18:10:12.488Z,99946.38
2019-04-03T18:12:37.877Z,99942.42
2019-04-03T18:15:06.235Z,99934.11
2019-04-03T18:17:34.383Z,99938.41
2019-04-03T18:20:01.445Z,99947.53
2019-04-03T18:22:28.580Z,99954.49
2019-04-03T18:24:55.821Z,99959.25
2019-04-03T18:27:22.959Z,99967.54
2019-04-03T18:29:50.245Z,99961.36
2019-04-03T18:32:17.385Z,99967.86
2019-04-03T18:34:44.544Z,99971.33
2019-04-03T18:37:11.680Z,99972.67
2019-04-03T18:39:40.247Z,99977.06
2019-04-03T18:42:07.735Z,99992.33
2019-04-03T18:44:34.896Z,99994.50
2019-04-03T18:47:01.978Z,99994.83
2019-04-03T18:49:30.599Z,99995.66
2019-04-03T18:51:58.150Z,100011.29
2019-04-03T18:54:25.349Z,100003.77
2019-04-03T18:56:52.429Z,99993.66
2019-04-03T18:59:19.880Z,99992.71
2019-04-03T19:01:47.179Z,99991.38
2019-04-03T19:04:14.276Z,99996.98
2019-04-03T19:06:42.963Z,100003.95
2019-04-03T19:09:49.916Z,100008.67
2019-04-03T19:12:18.859Z,100009.06
2019-04-03T19:14:47.162Z,100020.34
2019-04-03T19:17:14.299Z,100025.48
2019-04-03T19:19:41.506Z,100021.45
2019-04-03T19:22:08.708Z,100026.59
2019-04-03T19:24:37.391Z,100034.39
2019-04-03T19:27:04.470Z,100038.70
2019-04-03T19:29:31.706Z,100041.25
2019-04-03T19:32:17.504Z,100046.42
2019-04-03T19:34:44.593Z,100038.44
2019-04-03T19:37:12.996Z,100039.22
2019-04-03T19:39:40.105Z,100036.53
2019-04-03T19:42:07.315Z,100034.70
2019-04-03T19:44:34.557Z,100028.52
2019-04-03T19:47:04.065Z,100027.17
2019-04-03T19:49:31.181Z,100024.48
2019-04-03T19:51:58.230Z,100024.84
2019-04-03T19:54:25.713Z,100020.38
2019-04-03T19:56:52.799Z,100019.04
2019-04-03T19:59:19.884Z,100016.78
2019-04-03T20:01:49.205Z,100019.36
2019-04-03T20:04:34.650Z,100028.48
2019-04-03T20:07:01.791Z,100028.41
2019-04-03T20:09:31.933Z,100028.38
2019-04-03T20:11:57.998Z,100029.19
2019-04-03T20:14:25.068Z,100023.84
2019-04-03T20:16:54.481Z,100013.77
2019-04-03T20:19:21.736Z,100016.84
2019-04-03T20:21:48.883Z,100020.27
2019-04-03T20:24:16.608Z,100012.81
2019-04-03T20:26:46.691Z,100018.89
2019-04-03T20:29:14.592Z,100020.23
2019-04-03T20:31:41.775Z,100016.31
2019-04-03T20:34:08.910Z,100006.70
2019-04-03T20:36:56.283Z,100010.13
2019-04-03T20:39:23.400Z,100024.97
2019-04-03T20:41:50.466Z,100031.36
2019-04-03T20:44:17.613Z,100033.91
2019-04-03T20:46:44.716Z,100029.48
2019-04-03T20:49:11.789Z,100029.02
2019-04-03T20:51:39.882Z,100029.02
2019-04-03T20:54:07.686Z,100039.44
2019-04-03T20:56:34.792Z,100037.71
2019-04-03T20:59:02.007Z,100031.64
2019-04-03T21:01:29.208Z,100035.98
2019-04-03T21:03:56.431Z,100030.33
2019-04-03T21:06:23.884Z,100032.09
2019-04-03T21:09:36.902Z,100020.33
2019-04-03T21:12:05.084Z,100007.29
2019-04-03T21:14:34.149Z,100002.87
2019-04-03T21:17:01.215Z,100005.45
2019-04-03T21:19:46.609Z,99986.26
2019-04-03T21:22:13.873Z,99973.53
2019-04-03T21:24:40.936Z,99968.66
2019-04-03T21:27:09.301Z,99964.23
2019-04-03T21:30:25.295Z,99966.78
2019-04-03T21:32:52.392Z,99973.20
2019-04-03T21:35:20.115Z,99983.94
2019-04-03T21:37:47.176Z,99992.16
2019-04-03T21:40:15.835Z,99992.47
2019-04-03T21:42:43.069Z,99992.81
2019-04-03T21:45:10.648Z,100001.42
2019-04-03T21:47:37.869Z,100001.38
2019-04-03T21:50:06.631Z,100004.80
2019-04-03T21:52:33.743Z,100000.88
2019-04-03T21:55:00.804Z,100006.56
2019-04-03T21:57:27.978Z,100010.48
2019-04-03T21:59:55.157Z,100018.78
2019-04-03T22:02:22.294Z,100013.52
2019-04-03T22:04:49.406Z,99989.92
2019-04-03T22:07:16.578Z,99978.47
2019-04-03T22:09:43.666Z,99969.72
2019-04-03T22:12:10.730Z,99983.58
2019-04-03T22:14:37.805Z,99993.99
2019-04-03T22:17:04.910Z,100015.23
2019-04-03T22:19:31.989Z,100028.21
2019-04-03T22:21:59.061Z,100025.14
2019-04-03T22:24:26.144Z,100030.78
2019-04-03T22:26:53.197Z,100029.39
2019-04-03T22:29:20.597Z,100017.64
2019-04-03T22:31:47.763Z,100003.36
2019-04-03T22:34:14.878Z,99992.91
2019-04-03T22:36:42.097Z,99973.66
2019-04-03T22:39:09.601Z,99969.66
2019-04-03T22:41:36.760Z,99994.34
2019-04-03T22:44:03.956Z,100012.45
2019-04-03T22:46:31.141Z,100024.50
2019-04-03T22:49:00.127Z,100025.30
2019-04-03T22:51:27.413Z,100030.95
2019-04-03T22:53:54.506Z,100026.98
2019-04-03T22:56:21.688Z,100028.25
2019-04-03T22:58:48.785Z,100038.19
2019-04-03T23:01:15.969Z,100041.17
2019-04-03T23:03:43.081Z,100036.28
2019-04-03T23:06:18.801Z,100036.11
2019-04-03T23:08:46.546Z,100032.03
2019-04-03T23:11:13.617Z,100025.83
2019-04-03T23:13:40.738Z,100010.09
2019-04-03T23:16:07.906Z,100009.63
2019-04-03T23:18:34.968Z,100016.52
2019-04-03T23:21:02.153Z,100023.47
2019-04-03T23:23:29.198Z,100019.92
2019-04-03T23:25:56.303Z,100004.55
2019-04-03T23:28:23.398Z,99990.11
2019-04-03T23:30:50.577Z,99976.14
2019-04-03T23:33:17.709Z,99989.55
2019-04-03T23:35:44.827Z,99984.72
2019-04-03T23:38:11.891Z,99969.30
2019-04-03T23:40:38.958Z,99973.96
2019-04-03T23:43:08.556Z,99988.64
2019-04-03T23:45:35.035Z,99976.39
2019-04-03T23:48:02.103Z,99968.38
2019-04-03T23:50:29.175Z,99952.55
2019-04-03T23:52:56.326Z,99936.34
2019-04-03T23:55:23.420Z,99943.61
2019-04-03T23:57:50.476Z,99973.33
